createdAt,value
2019-04-22T00:00:32.808Z,4.55
2019-04-22T00:01:34.595Z,4.40
2019-04-22T00:02:43.554Z,4.78
2019-04-22T00:03:52.711Z,4.62
2019-04-22T00:05:02.270Z,4.87
2019-04-22T00:06:20.376Z,5.10
2019-04-22T00:07:28.933Z,4.70
2019-04-22T00:08:36.046Z,4.35
2019-04-22T00:09:45.952Z,5.10
2019-04-22T00:10:50.234Z,5.00
2019-04-22T00:11:56.056Z,4.20
2019-04-22T00:13:00.058Z,4.95
2019-04-22T00:14:00.670Z,4.28
2019-04-22T00:15:08.143Z,4.20
2019-04-22T00:16:19.823Z,5.05
2019-04-22T00:17:30.658Z,4.47
2019-04-22T00:18:42.880Z,5.20
2019-04-22T00:19:37.279Z,5.00
2019-04-22T00:20:43.911Z,4.87
2019-04-22T00:21:46.168Z,4.78
2019-04-22T00:22:51.850Z,4.70
2019-04-22T00:23:57.868Z,5.40
2019-04-22T00:25:10.060Z,4.53
2019-04-22T00:26:20.343Z,4.62
2019-04-22T00:27:24.371Z,5.22
2019-04-22T00:28:24.850Z,3.75
2019-04-22T00:30:02.471Z,4.62
2019-04-22T00:30:56.162Z,5.17
2019-04-22T00:32:24.622Z,4.47
2019-04-22T00:33:35.357Z,4.80
2019-04-22T00:34:35.882Z,5.72
2019-04-22T00:35:49.779Z,4.85
2019-04-22T00:36:54.844Z,4.50
2019-04-22T00:38:09.229Z,5.00
2019-04-22T00:39:07.469Z,4.45
2019-04-22T00:40:17.743Z,5.22
2019-04-22T00:41:26.717Z,5.08
2019-04-22T00:42:20.854Z,4.60
2019-04-22T00:43:32.729Z,4.95
2019-04-22T00:44:38.946Z,4.50
2019-04-22T00:47:50.383Z,4.47
2019-04-22T00:49:49.101Z,4.33
2019-04-22T00:51:12.321Z,4.47
2019-04-22T00:52:16.626Z,5.10
2019-04-22T00:54:43.948Z,3.87
2019-04-22T00:55:38.125Z,4.72
2019-04-22T00:56:42.139Z,5.10
2019-04-22T00:57:56.246Z,5.22
2019-04-22T00:58:50.274Z,4.42
2019-04-22T01:00:05.593Z,4.58
2019-04-22T01:01:17.424Z,4.62
2019-04-22T01:02:20.275Z,5.10
2019-04-22T01:03:27.482Z,5.08
2019-04-22T01:04:34.800Z,4.35
2019-04-22T01:05:34.192Z,4.95
2019-04-22T01:06:38.832Z,5.15
2019-04-22T01:07:49.953Z,4.95
2019-04-22T01:08:57.962Z,4.62
2019-04-22T01:10:07.494Z,4.53
2019-04-22T01:11:12.607Z,4.53
2019-04-22T01:12:14.171Z,5.45
2019-04-22T01:13:18.589Z,5.65
2019-04-22T01:14:25.048Z,5.12
2019-04-22T01:15:30.328Z,4.55
2019-04-22T01:16:39.266Z,4.95
2019-04-22T01:17:41.750Z,4.20
2019-04-22T01:18:52.277Z,4.45
2019-04-22T01:19:59.774Z,5.03
2019-04-22T01:22:06.709Z,4.70
2019-04-22T01:23:10.995Z,4.80
2019-04-22T01:24:20.778Z,4.90
2019-04-22T01:25:21.647Z,5.17
2019-04-22T01:26:25.370Z,4.65
2019-04-22T01:27:33.438Z,5.30
2019-04-22T01:28:38.703Z,4.90
2019-04-22T01:29:44.064Z,5.25
2019-04-22T01:30:46.872Z,5.30
2019-04-22T01:31:47.353Z,4.95
2019-04-22T01:32:57.915Z,5.15
2019-04-22T01:34:10.330Z,5.33
2019-04-22T01:35:19.632Z,5.50
2019-04-22T01:36:32.392Z,5.00
2019-04-22T01:37:34.577Z,4.45
2019-04-22T01:38:46.895Z,4.62
2019-04-22T01:40:00.164Z,4.80
2019-04-22T01:41:04.683Z,5.65
2019-04-22T01:42:06.224Z,5.08
2019-04-22T01:43:19.937Z,4.80
2019-04-22T01:44:27.957Z,5.40
2019-04-22T01:45:25.830Z,4.85
2019-04-22T01:46:32.070Z,5.10
2019-04-22T01:47:37.370Z,4.42
2019-04-22T01:48:50.596Z,4.83
2019-04-22T01:49:49.539Z,4.55
2019-04-22T01:50:50.095Z,5.95
2019-04-22T01:52:07.744Z,5.05
2019-04-22T01:53:16.386Z,4.83
2019-04-22T01:54:29.946Z,4.87
2019-04-22T01:55:27.439Z,4.90
2019-04-22T01:56:28.928Z,5.22
2019-04-22T01:57:30.398Z,4.95
2019-04-22T01:58:31.138Z,4.92
2019-04-22T01:59:35.584Z,4.58
2019-04-22T02:00:53.676Z,4.78
2019-04-22T02:01:55.044Z,4.83
2019-04-22T02:03:07.269Z,4.72
2019-04-22T02:04:15.227Z,4.72
2019-04-22T02:05:18.980Z,4.60
2019-04-22T02:06:22.758Z,4.58
2019-04-22T02:07:23.532Z,5.17
2019-04-22T02:08:40.560Z,4.87
2019-04-22T02:09:42.793Z,4.42
2019-04-22T02:10:52.616Z,5.00
2019-04-22T02:11:53.369Z,4.80
2019-04-22T02:12:53.304Z,5.17
2019-04-22T02:14:04.637Z,4.87
2019-04-22T02:15:06.601Z,4.40
2019-04-22T02:16:15.225Z,4.05
2019-04-22T02:17:26.537Z,5.25
2019-04-22T02:18:34.472Z,4.87
2019-04-22T02:20:35.893Z,5.40
2019-04-22T02:21:46.175Z,4.95
2019-04-22T02:23:42.865Z,4.28
2019-04-22T02:24:28.356Z,4.67
2019-04-22T02:25:32.771Z,5.00
2019-04-22T02:26:35.544Z,4.55
2019-04-22T02:27:43.763Z,5.00
2019-04-22T02:28:45.796Z,4.50
2019-04-22T02:29:52.303Z,4.70
2019-04-22T02:32:10.575Z,4.60
2019-04-22T02:33:46.594Z,4.90
2019-04-22T02:34:31.144Z,4.87
2019-04-22T02:35:45.939Z,5.10
2019-04-22T02:36:35.817Z,4.83
2019-04-22T02:39:47.096Z,4.83
2019-04-22T02:42:07.953Z,4.72
2019-04-22T02:43:21.906Z,5.03
2019-04-22T02:44:13.567Z,4.95
2019-04-22T02:45:18.205Z,5.10
2019-04-22T02:46:43.259Z,5.15
2019-04-22T02:47:27.119Z,4.97
2019-04-22T02:48:53.970Z,4.95
2019-04-22T02:50:02.369Z,4.75
2019-04-22T02:50:56.477Z,4.85
2019-04-22T02:51:52.302Z,4.67
2019-04-22T02:53:00.874Z,5.33
2019-04-22T02:54:36.425Z,4.70
2019-04-22T02:56:27.469Z,5.35
2019-04-22T02:58:46.958Z,4.65
2019-04-22T02:59:39.878Z,4.55
2019-04-22T03:00:46.240Z,5.28
2019-04-22T03:01:47.036Z,4.72
2019-04-22T03:03:13.718Z,4.45
2019-04-22T03:05:09.126Z,5.45
2019-04-22T03:07:14.693Z,4.92
2019-04-22T03:08:36.758Z,5.35
2019-04-22T03:10:47.326Z,5.92
2019-04-22T03:12:54.103Z,4.70
2019-04-22T03:14:03.283Z,5.03
2019-04-22T03:14:59.905Z,5.90
2019-04-22T03:17:22.103Z,5.53
2019-04-22T03:18:33.026Z,5.33
2019-04-22T03:20:34.821Z,4.80
2019-04-22T03:21:38.146Z,4.75
2019-04-22T03:22:46.879Z,4.08
2019-04-22T03:25:24.281Z,4.87
2019-04-22T03:26:11.909Z,5.25
2019-04-22T03:27:07.792Z,5.40
2019-04-22T03:28:26.702Z,4.90
2019-04-22T03:30:38.495Z,5.05
2019-04-22T03:32:16.557Z,4.70
2019-04-22T03:33:19.275Z,4.95
2019-04-22T03:35:31.717Z,5.05
2019-04-22T03:36:53.485Z,4.80
2019-04-22T03:37:43.229Z,5.20
2019-04-22T03:38:41.192Z,5.12
2019-04-22T03:39:45.651Z,4.62
2019-04-22T03:41:57.303Z,5.25
2019-04-22T03:42:55.720Z,4.87
2019-04-22T03:45:12.086Z,6.10
2019-04-22T03:46:14.615Z,5.22
2019-04-22T03:47:27.954Z,4.70
2019-04-22T03:48:30.543Z,5.08
2019-04-22T03:49:37.153Z,5.05
2019-04-22T03:51:45.707Z,5.35
2019-04-22T03:52:53.054Z,5.03
2019-04-22T03:54:02.813Z,5.20
2019-04-22T03:56:10.914Z,4.90
2019-04-22T03:58:05.436Z,5.83
2019-04-22T03:59:36.975Z,5.90
2019-04-22T04:03:50.670Z,5.40
2019-04-22T04:05:59.524Z,4.62
2019-04-22T04:08:26.458Z,5.08
2019-04-22T04:09:24.084Z,4.25
2019-04-22T04:11:32.257Z,5.10
2019-04-22T04:12:39.919Z,5.03
2019-04-22T04:13:41.630Z,5.15
2019-04-22T04:15:38.370Z,5.15
2019-04-22T04:20:21.810Z,5.25
2019-04-22T04:23:53.306Z,4.85
2019-04-22T04:25:05.773Z,4.87
2019-04-22T04:25:50.292Z,5.80
2019-04-22T04:27:06.724Z,4.95
2019-04-22T04:31:25.024Z,6.85
2019-04-22T04:32:41.622Z,6.70
2019-04-22T04:33:35.924Z,6.47
2019-04-22T04:34:56.295Z,6.62
2019-04-22T04:35:56.658Z,7.55
2019-04-22T04:36:54.945Z,7.12
2019-04-22T04:39:02.967Z,6.78
2019-04-22T04:40:12.591Z,7.12
2019-04-22T04:41:19.381Z,6.85
2019-04-22T04:44:59.503Z,6.80
2019-04-22T04:46:51.754Z,6.83
2019-04-22T04:49:00.071Z,6.45
2019-04-22T04:51:16.134Z,5.85
2019-04-22T04:52:17.000Z,6.10
2019-04-22T04:53:22.777Z,5.97
2019-04-22T04:54:35.525Z,5.40
2019-04-22T04:55:28.531Z,7.72
2019-04-22T04:56:38.525Z,7.08
2019-04-22T04:58:01.054Z,11.48
2019-04-22T04:58:56.409Z,11.83
2019-04-22T05:00:30.619Z,10.40
2019-04-22T05:02:06.616Z,9.90
2019-04-22T05:03:10.630Z,9.30
2019-04-22T05:05:26.613Z,9.00
2019-04-22T05:06:39.281Z,9.35
2019-04-22T05:07:40.509Z,9.10
2019-04-22T05:09:44.750Z,12.50
2019-04-22T05:11:11.532Z,12.05
2019-04-22T05:15:18.520Z,21.52
2019-04-22T05:17:25.799Z,22.40
2019-04-22T05:19:32.814Z,13.85
2019-04-22T05:20:53.469Z,13.43
2019-04-22T05:21:53.298Z,15.25
2019-04-22T05:22:51.073Z,16.27
2019-04-22T05:24:03.799Z,14.10
2019-04-22T05:26:18.282Z,11.93
2019-04-22T05:27:21.716Z,9.70
2019-04-22T05:28:24.443Z,11.45
2019-04-22T05:29:43.547Z,13.43
2019-04-22T05:30:45.994Z,13.25
2019-04-22T05:31:47.994Z,12.30
2019-04-22T05:33:56.349Z,11.55
2019-04-22T05:34:59.729Z,10.43
2019-04-22T05:36:10.194Z,9.80
2019-04-22T05:37:14.719Z,7.62
2019-04-22T05:38:20.147Z,8.20
2019-04-22T05:39:36.192Z,7.95
2019-04-22T05:40:28.232Z,8.35
2019-04-22T05:41:36.403Z,9.85
2019-04-22T05:42:39.676Z,8.75
2019-04-22T05:43:53.271Z,9.38
2019-04-22T05:44:56.603Z,7.15
2019-04-22T05:46:01.087Z,7.50
2019-04-22T05:47:01.182Z,7.95
2019-04-22T05:48:13.671Z,7.12
2019-04-22T05:50:19.926Z,7.30
2019-04-22T05:51:31.235Z,7.53
2019-04-22T05:52:31.555Z,7.22
2019-04-22T05:53:43.462Z,6.72
2019-04-22T05:54:50.540Z,6.15
2019-04-22T05:56:56.218Z,5.87
2019-04-22T05:58:02.787Z,4.87
2019-04-22T05:59:14.661Z,5.20
2019-04-22T06:00:25.832Z,5.08
2019-04-22T06:02:39.773Z,4.70
2019-04-22T06:03:37.878Z,5.05
2019-04-22T06:04:48.453Z,5.33
2019-04-22T06:06:00.888Z,5.40
2019-04-22T06:06:46.940Z,6.37
2019-04-22T06:08:01.517Z,5.55
2019-04-22T06:09:07.156Z,5.08
2019-04-22T06:11:22.946Z,6.30
2019-04-22T06:12:23.509Z,6.05
2019-04-22T06:13:30.489Z,5.08
2019-04-22T06:14:37.680Z,5.08
2019-04-22T06:15:39.010Z,6.10
2019-04-22T06:16:57.187Z,6.87
2019-04-22T06:18:09.577Z,6.10
2019-04-22T06:19:21.238Z,7.70
2019-04-22T06:20:15.695Z,6.22
2019-04-22T06:21:22.415Z,7.05
2019-04-22T06:23:42.715Z,6.10
2019-04-22T06:24:31.428Z,6.45
2019-04-22T06:27:54.197Z,6.97
2019-04-22T06:29:06.685Z,5.33
2019-04-22T06:30:12.642Z,5.83
2019-04-22T06:31:16.013Z,5.70
2019-04-22T06:32:31.524Z,5.60
2019-04-22T06:33:30.206Z,6.37
2019-04-22T06:34:48.283Z,6.80
2019-04-22T06:38:14.532Z,6.45
2019-04-22T06:38:55.661Z,5.83
2019-04-22T06:40:10.997Z,5.75
2019-04-22T06:42:19.231Z,5.97
2019-04-22T06:43:22.176Z,5.45
2019-04-22T06:46:41.993Z,5.30
2019-04-22T06:48:52.817Z,4.70
2019-04-22T06:49:55.567Z,5.15
2019-04-22T06:51:05.152Z,5.20
2019-04-22T06:52:13.725Z,4.85
2019-04-22T06:53:16.808Z,5.08
2019-04-22T06:54:22.066Z,5.10
2019-04-22T06:55:35.756Z,5.08
2019-04-22T06:56:27.190Z,5.53
2019-04-22T06:57:38.216Z,4.97
2019-04-22T06:58:52.324Z,4.75
2019-04-22T06:59:51.585Z,4.45
2019-04-22T07:00:53.182Z,4.33
2019-04-22T07:03:28.598Z,4.95
2019-04-22T07:04:09.261Z,5.50
2019-04-22T07:05:21.766Z,4.50
2019-04-22T07:07:31.483Z,4.15
2019-04-22T07:09:48.689Z,5.40
2019-04-22T07:10:50.449Z,4.72
2019-04-22T07:12:02.432Z,4.95
2019-04-22T07:13:03.539Z,4.70
2019-04-22T07:15:24.407Z,4.70
2019-04-22T07:16:26.245Z,4.35
2019-04-22T07:17:29.690Z,4.92
2019-04-22T07:18:37.287Z,5.00
2019-04-22T07:19:40.892Z,5.05
2019-04-22T07:20:50.831Z,6.05
2019-04-22T07:21:50.597Z,7.90
2019-04-22T07:23:01.948Z,6.22
2019-04-22T07:24:21.128Z,7.50
2019-04-22T07:25:10.202Z,6.20
2019-04-22T07:26:18.957Z,6.17
2019-04-22T07:27:21.701Z,5.30
2019-04-22T07:28:27.384Z,6.33
2019-04-22T07:29:36.257Z,4.90
2019-04-22T07:30:41.072Z,4.65
2019-04-22T07:31:49.849Z,5.10
2019-04-22T07:33:11.427Z,5.28
2019-04-22T07:33:58.469Z,4.25
2019-04-22T07:35:08.548Z,5.12
2019-04-22T07:37:29.604Z,8.05
2019-04-22T07:38:29.934Z,9.13
2019-04-22T07:39:29.709Z,9.78
2019-04-22T07:40:38.952Z,7.97
2019-04-22T07:44:54.770Z,3.55
2019-04-22T07:46:18.746Z,4.30
2019-04-22T07:48:26.560Z,4.12
2019-04-22T07:49:25.830Z,3.50
2019-04-22T07:50:43.077Z,4.28
2019-04-22T07:51:32.603Z,4.20
2019-04-22T07:52:38.628Z,4.62
2019-04-22T07:53:40.593Z,4.20
2019-04-22T07:54:52.548Z,3.95
2019-04-22T07:56:01.691Z,4.42
2019-04-22T07:57:08.746Z,4.05
2019-04-22T07:58:11.876Z,3.87
2019-04-22T07:59:18.613Z,4.05
2019-04-22T08:00:28.048Z,3.90
2019-04-22T08:01:28.010Z,3.92
2019-04-22T08:02:37.871Z,3.50
2019-04-22T08:03:51.767Z,4.20
2019-04-22T08:04:59.016Z,4.20
2019-04-22T08:06:02.555Z,3.85
2019-04-22T08:06:58.934Z,3.80
2019-04-22T08:08:10.931Z,3.47
2019-04-22T08:09:15.279Z,3.50
2019-04-22T08:10:23.804Z,4.22
2019-04-22T08:11:37.547Z,3.80
2019-04-22T08:12:36.557Z,4.00
2019-04-22T08:13:38.551Z,3.75
2019-04-22T08:14:42.183Z,3.62
2019-04-22T08:15:45.465Z,4.15
2019-04-22T08:17:01.381Z,3.58
2019-04-22T08:18:06.830Z,3.40
2019-04-22T08:19:10.574Z,3.92
2019-04-22T08:20:09.257Z,4.00
2019-04-22T08:21:12.378Z,3.35
2019-04-22T08:22:24.021Z,3.77
2019-04-22T08:23:33.629Z,4.78
2019-04-22T08:24:42.055Z,3.60
2019-04-22T08:25:45.752Z,3.45
2019-04-22T08:26:52.021Z,3.17
2019-04-22T08:27:56.848Z,4.30
2019-04-22T08:28:59.060Z,4.17
2019-04-22T08:30:14.432Z,3.70
2019-04-22T08:31:14.567Z,4.28
2019-04-22T08:32:21.929Z,3.55
2019-04-22T08:33:29.458Z,3.40
2019-04-22T08:34:35.747Z,3.35
2019-04-22T08:35:52.520Z,3.40
2019-04-22T08:36:58.877Z,3.87
2019-04-22T08:37:51.201Z,3.67
2019-04-22T08:40:09.552Z,3.90
2019-04-22T08:41:28.442Z,3.75
2019-04-22T08:42:34.971Z,3.92
2019-04-22T08:43:36.491Z,3.77
2019-04-22T08:45:50.033Z,3.37
2019-04-22T08:46:56.182Z,2.98
2019-04-22T08:47:57.629Z,3.22
2019-04-22T08:49:16.439Z,3.02
2019-04-22T08:51:21.091Z,2.90
2019-04-22T08:52:20.828Z,3.15
2019-04-22T08:53:34.299Z,3.00
2019-04-22T08:54:37.663Z,2.95
2019-04-22T08:55:54.168Z,2.85
2019-04-22T08:56:45.021Z,3.35
2019-04-22T08:58:08.447Z,3.45
2019-04-22T08:59:01.995Z,3.20
2019-04-22T09:00:04.038Z,2.90
2019-04-22T09:01:13.651Z,3.02
2019-04-22T09:02:20.492Z,2.90
2019-04-22T09:03:17.353Z,3.15
2019-04-22T09:04:27.881Z,2.67
2019-04-22T09:07:07.704Z,3.12
2019-04-22T09:07:46.967Z,2.85
2019-04-22T09:08:55.198Z,2.75
2019-04-22T09:09:55.650Z,3.00
2019-04-22T09:11:11.339Z,3.02
2019-04-22T09:12:15.951Z,2.77
2019-04-22T09:13:26.294Z,3.08
2019-04-22T09:14:26.149Z,3.20
2019-04-22T09:15:30.414Z,3.15
2019-04-22T09:16:39.638Z,3.12
2019-04-22T09:17:40.329Z,2.83
2019-04-22T09:18:48.248Z,2.58
2019-04-22T09:19:56.623Z,2.70
2019-04-22T09:21:07.056Z,2.62
2019-04-22T09:22:09.717Z,3.22
2019-04-22T09:23:17.691Z,2.92
2019-04-22T09:24:16.102Z,3.10
2019-04-22T09:25:26.882Z,3.20
2019-04-22T09:26:34.657Z,2.77
2019-04-22T09:27:41.297Z,2.65
2019-04-22T09:28:48.291Z,2.77
2019-04-22T09:29:43.159Z,2.83
2019-04-22T09:31:02.076Z,3.00
2019-04-22T09:32:08.038Z,2.50
2019-04-22T09:33:14.060Z,2.50
2019-04-22T09:34:14.023Z,2.72
2019-04-22T09:35:30.489Z,2.65
2019-04-22T09:36:33.984Z,3.27
2019-04-22T09:37:39.203Z,3.30
2019-04-22T09:39:51.662Z,2.60
2019-04-22T09:40:52.515Z,2.87
2019-04-22T09:41:57.152Z,2.72
2019-04-22T09:43:04.944Z,2.90
2019-04-22T09:44:09.355Z,2.87
2019-04-22T09:45:15.155Z,2.77
2019-04-22T09:46:25.021Z,2.60
2019-04-22T09:48:37.551Z,2.70
2019-04-22T09:50:48.217Z,2.95
2019-04-22T09:51:54.186Z,2.90
2019-04-22T09:53:02.120Z,2.60
2019-04-22T09:54:10.050Z,2.65
2019-04-22T09:55:22.730Z,2.40
2019-04-22T09:56:18.085Z,2.87
2019-04-22T09:57:20.979Z,2.90
2019-04-22T09:58:32.076Z,2.80
2019-04-22T09:59:40.937Z,2.50
2019-04-22T10:00:43.026Z,2.67
2019-04-22T10:01:59.380Z,2.33
2019-04-22T10:03:00.930Z,2.42
2019-04-22T10:04:00.813Z,2.77
2019-04-22T10:05:07.600Z,2.80
2019-04-22T10:06:17.327Z,2.50
2019-04-22T10:07:23.928Z,2.80
2019-04-22T10:08:33.960Z,2.05
2019-04-22T10:10:38.071Z,2.50
2019-04-22T10:13:03.154Z,2.37
2019-04-22T10:14:03.915Z,2.27
2019-04-22T10:14:54.017Z,2.70
2019-04-22T10:16:10.782Z,2.00
2019-04-22T10:17:08.107Z,2.80
2019-04-22T10:18:20.318Z,2.50
2019-04-22T10:19:23.200Z,2.30
2019-04-22T10:20:36.320Z,1.92
2019-04-22T10:21:40.074Z,2.30
2019-04-22T10:23:47.237Z,2.12
2019-04-22T10:24:53.195Z,2.42
2019-04-22T10:25:57.438Z,2.27
2019-04-22T10:27:01.733Z,2.47
2019-04-22T10:28:14.733Z,2.22
2019-04-22T10:29:20.291Z,2.45
2019-04-22T10:30:34.187Z,2.77
2019-04-22T10:31:36.977Z,2.12
2019-04-22T10:32:35.349Z,2.40
2019-04-22T10:33:36.291Z,2.20
2019-04-22T10:34:34.058Z,2.60
2019-04-22T10:35:32.228Z,2.72
2019-04-22T10:36:37.703Z,2.08
2019-04-22T10:37:42.766Z,2.98
2019-04-22T10:38:48.579Z,2.35
2019-04-22T10:39:58.564Z,2.55
2019-04-22T10:41:00.696Z,2.30
2019-04-22T10:42:05.058Z,2.30
2019-04-22T10:43:11.506Z,2.22
2019-04-22T10:44:17.048Z,2.20
2019-04-22T10:45:21.947Z,2.10
2019-04-22T10:46:26.534Z,2.20
2019-04-22T10:47:32.032Z,1.90
2019-04-22T10:48:36.700Z,2.25
2019-04-22T10:49:42.448Z,1.70
2019-04-22T10:50:48.787Z,2.20
2019-04-22T10:51:53.102Z,2.12
2019-04-22T10:52:57.459Z,1.98
2019-04-22T10:54:01.941Z,2.37
2019-04-22T10:55:07.531Z,2.10
2019-04-22T10:56:12.724Z,1.82
2019-04-22T10:57:18.156Z,2.40
2019-04-22T10:58:22.970Z,2.35
2019-04-22T10:59:27.260Z,2.15
2019-04-22T11:00:31.761Z,2.22
2019-04-22T11:01:38.496Z,1.82
2019-04-22T11:02:43.601Z,2.45
2019-04-22T11:04:56.349Z,2.00
2019-04-22T11:06:01.266Z,2.40
2019-04-22T11:07:10.501Z,2.10
2019-04-22T11:08:20.363Z,1.98
2019-04-22T11:09:20.365Z,2.15
2019-04-22T11:10:36.801Z,2.20
2019-04-22T11:11:42.061Z,2.40
2019-04-22T11:12:38.037Z,2.50
2019-04-22T11:13:44.053Z,3.60
2019-04-22T11:14:49.718Z,2.17
2019-04-22T11:15:55.027Z,1.95
2019-04-22T11:17:02.262Z,2.10
2019-04-22T11:18:07.353Z,2.52
2019-04-22T11:19:11.927Z,2.40
2019-04-22T11:20:17.664Z,2.15
2019-04-22T11:21:23.240Z,2.85
2019-04-22T11:22:32.226Z,3.22
2019-04-22T11:23:34.414Z,3.10
2019-04-22T11:24:38.973Z,3.22
2019-04-22T11:25:43.921Z,2.20
2019-04-22T11:26:49.293Z,2.83
2019-04-22T11:27:53.805Z,2.58
2019-04-22T11:28:59.361Z,2.35
2019-04-22T11:30:05.780Z,3.00
2019-04-22T11:31:10.509Z,3.60
2019-04-22T11:32:14.971Z,2.80
2019-04-22T11:33:20.445Z,3.37
2019-04-22T11:34:26.824Z,3.55
2019-04-22T11:35:32.072Z,3.55
2019-04-22T11:36:37.049Z,3.12
2019-04-22T11:37:42.529Z,2.83
2019-04-22T11:38:55.264Z,3.42
2019-04-22T11:40:04.620Z,2.95
2019-04-22T11:41:00.041Z,3.10
2019-04-22T11:42:05.163Z,3.33
2019-04-22T11:43:10.236Z,3.30
2019-04-22T11:44:15.121Z,3.17
2019-04-22T11:45:21.576Z,3.17
2019-04-22T11:46:27.243Z,3.05
2019-04-22T11:47:33.088Z,3.40
2019-04-22T11:48:38.114Z,3.15
2019-04-22T11:49:43.808Z,3.05
2019-04-22T11:50:48.206Z,3.00
2019-04-22T11:51:54.119Z,3.60
2019-04-22T11:52:58.665Z,3.08
2019-04-22T11:54:03.102Z,3.30
2019-04-22T11:55:08.703Z,3.27
2019-04-22T11:56:13.270Z,3.08
2019-04-22T11:57:19.039Z,3.33
2019-04-22T11:58:24.635Z,3.22
2019-04-22T11:59:29.081Z,3.27
2019-04-22T12:00:34.978Z,3.25
2019-04-22T12:01:39.624Z,3.80
2019-04-22T12:02:44.886Z,3.40
2019-04-22T12:03:49.564Z,3.50
2019-04-22T12:04:54.028Z,3.10
2019-04-22T12:05:59.749Z,2.83
2019-04-22T12:07:05.898Z,3.45
2019-04-22T12:08:11.253Z,3.20
2019-04-22T12:09:17.718Z,3.00
2019-04-22T12:10:29.859Z,2.33
2019-04-22T12:11:28.571Z,2.75
2019-04-22T12:12:32.863Z,2.98
2019-04-22T12:13:37.938Z,3.40
2019-04-22T12:14:42.485Z,2.65
2019-04-22T12:15:46.862Z,2.80
2019-04-22T12:16:51.373Z,3.75
2019-04-22T12:17:57.289Z,2.70
2019-04-22T12:19:02.959Z,3.35
2019-04-22T12:20:12.306Z,3.25
2019-04-22T12:21:15.333Z,2.80
2019-04-22T12:22:20.882Z,2.70
2019-04-22T12:23:25.308Z,3.05
2019-04-22T12:24:30.231Z,2.75
2019-04-22T12:25:46.356Z,2.80
2019-04-22T12:26:42.363Z,3.30
2019-04-22T12:27:47.302Z,3.02
2019-04-22T12:28:53.064Z,2.72
2019-04-22T12:29:58.743Z,2.85
2019-04-22T12:31:03.715Z,2.80
2019-04-22T12:32:09.427Z,3.00
2019-04-22T12:33:14.975Z,3.50
2019-04-22T12:34:19.686Z,2.85
2019-04-22T12:35:24.353Z,2.90
2019-04-22T12:36:28.854Z,3.30
2019-04-22T12:37:40.745Z,3.10
2019-04-22T12:38:39.917Z,2.87
2019-04-22T12:39:45.363Z,3.15
2019-04-22T12:40:56.579Z,2.62
2019-04-22T12:41:56.216Z,2.70
2019-04-22T12:43:04.131Z,2.95
2019-04-22T12:44:07.538Z,3.05
2019-04-22T12:45:13.912Z,2.92
2019-04-22T12:46:18.589Z,3.10
2019-04-22T12:47:24.359Z,2.30
2019-04-22T12:48:28.789Z,2.72
2019-04-22T12:49:35.629Z,2.50
2019-04-22T12:50:42.414Z,3.20
2019-04-22T12:51:45.441Z,2.98
2019-04-22T12:52:55.406Z,3.10
2019-04-22T12:53:57.076Z,3.05
2019-04-22T12:55:01.688Z,2.50
2019-04-22T12:56:07.040Z,2.90
2019-04-22T12:57:12.337Z,2.52
2019-04-22T12:58:17.973Z,3.17
2019-04-22T12:59:23.678Z,3.02
2019-04-22T13:00:30.034Z,3.08
2019-04-22T13:01:35.066Z,2.70
2019-04-22T13:02:40.822Z,2.83
2019-04-22T13:03:46.213Z,2.98
2019-04-22T13:04:52.016Z,2.90
2019-04-22T13:05:57.420Z,3.22
2019-04-22T13:07:01.975Z,2.80
2019-04-22T13:08:07.579Z,2.55
2019-04-22T13:09:12.682Z,2.70
2019-04-22T13:10:19.971Z,3.20
2019-04-22T13:11:30.478Z,2.60
2019-04-22T13:12:31.102Z,2.60
2019-04-22T13:13:36.729Z,3.35
2019-04-22T13:14:41.202Z,3.27
2019-04-22T13:15:46.691Z,3.58
2019-04-22T13:16:51.264Z,2.83
2019-04-22T13:18:05.763Z,2.80
2019-04-22T13:19:05.706Z,3.05
2019-04-22T13:20:09.745Z,3.08
2019-04-22T13:21:14.968Z,2.80
2019-04-22T13:22:21.075Z,3.25
2019-04-22T13:23:25.632Z,2.77
2019-04-22T13:24:30.184Z,2.62
2019-04-22T13:25:34.765Z,3.05
2019-04-22T13:26:39.109Z,2.55
2019-04-22T13:27:44.815Z,2.58
2019-04-22T13:28:49.336Z,3.10
2019-04-22T13:29:55.070Z,2.40
2019-04-22T13:31:01.780Z,2.40
2019-04-22T13:32:06.886Z,3.10
2019-04-22T13:33:12.532Z,2.67
2019-04-22T13:34:24.347Z,2.20
2019-04-22T13:35:24.684Z,2.40
2019-04-22T13:36:31.676Z,2.80
2019-04-22T13:37:37.003Z,2.65
2019-04-22T13:38:42.858Z,2.42
2019-04-22T13:39:47.371Z,2.45
2019-04-22T13:41:12.520Z,2.80
2019-04-22T13:42:02.267Z,2.50
2019-04-22T13:43:04.619Z,2.92
2019-04-22T13:44:09.297Z,3.00
2019-04-22T13:45:13.863Z,2.30
2019-04-22T13:46:18.082Z,3.10
2019-04-22T13:47:37.372Z,2.83
2019-04-22T13:48:49.903Z,3.00
2019-04-22T13:50:11.744Z,2.40
2019-04-22T13:52:21.058Z,2.45
2019-04-22T13:55:32.846Z,2.40
2019-04-22T13:56:30.436Z,2.75
2019-04-22T13:57:35.917Z,2.83
2019-04-22T13:58:38.242Z,2.33
2019-04-22T13:59:36.599Z,2.40
2019-04-22T14:00:36.277Z,2.65
2019-04-22T14:02:04.260Z,3.00
2019-04-22T14:03:35.565Z,2.70
2019-04-22T14:04:41.173Z,2.58
2019-04-22T14:05:46.760Z,2.55
2019-04-22T14:06:52.442Z,2.55
2019-04-22T14:07:58.821Z,2.67
2019-04-22T14:09:03.237Z,2.83
2019-04-22T14:10:08.670Z,2.45
2019-04-22T14:11:23.014Z,2.50
2019-04-22T14:12:20.355Z,2.67
2019-04-22T14:13:25.860Z,2.55
2019-04-22T14:14:30.320Z,2.22
2019-04-22T14:15:36.491Z,2.02
2019-04-22T14:16:40.971Z,2.45
2019-04-22T14:17:45.414Z,2.40
2019-04-22T14:18:49.929Z,2.33
2019-04-22T14:19:54.991Z,2.65
2019-04-22T14:21:00.801Z,2.60
2019-04-22T14:22:07.467Z,2.42
2019-04-22T14:23:13.695Z,2.83
2019-04-22T14:24:19.626Z,2.27
2019-04-22T14:25:24.851Z,2.20
2019-04-22T14:26:44.172Z,2.20
2019-04-22T14:27:47.518Z,2.50
2019-04-22T14:28:41.664Z,2.40
2019-04-22T14:29:47.188Z,2.60
2019-04-22T14:30:52.668Z,2.67
2019-04-22T14:32:06.927Z,1.90
2019-04-22T14:33:04.814Z,2.40
2019-04-22T14:34:10.187Z,2.55
2019-04-22T14:35:15.849Z,3.00
2019-04-22T14:36:21.371Z,2.92
2019-04-22T14:37:25.595Z,2.75
2019-04-22T14:38:30.267Z,2.42
2019-04-22T14:39:35.792Z,2.25
2019-04-22T14:40:41.450Z,2.30
2019-04-22T14:42:12.377Z,2.70
2019-04-22T14:43:17.631Z,2.50
2019-04-22T14:44:56.376Z,2.15
2019-04-22T14:45:30.403Z,2.70
2019-04-22T14:47:39.413Z,2.72
2019-04-22T14:48:45.892Z,2.55
2019-04-22T14:49:56.039Z,2.58
2019-04-22T14:50:53.179Z,2.40
2019-04-22T14:52:10.686Z,2.33
2019-04-22T14:53:09.838Z,2.40
2019-04-22T14:54:09.820Z,2.58
2019-04-22T14:55:08.023Z,2.50
2019-04-22T14:56:06.498Z,2.45
2019-04-22T14:57:12.864Z,2.85
2019-04-22T14:58:17.453Z,2.33
2019-04-22T14:59:22.886Z,2.40
2019-04-22T15:00:27.844Z,2.25
2019-04-22T15:01:32.912Z,2.45
2019-04-22T15:02:37.551Z,2.17
2019-04-22T15:03:47.976Z,2.20
2019-04-22T15:04:52.223Z,2.40
2019-04-22T15:05:57.952Z,2.25
2019-04-22T15:07:03.090Z,2.50
2019-04-22T15:08:08.850Z,2.37
2019-04-22T15:09:14.412Z,2.55
2019-04-22T15:10:22.089Z,2.17
2019-04-22T15:11:26.863Z,2.47
2019-04-22T15:12:39.278Z,2.12
2019-04-22T15:13:37.096Z,2.10
2019-04-22T15:14:41.687Z,2.30
2019-04-22T15:16:03.985Z,2.50
2019-04-22T15:17:27.181Z,2.55
2019-04-22T15:18:37.891Z,2.30
2019-04-22T15:20:03.969Z,2.58
2019-04-22T15:21:14.491Z,1.98
2019-04-22T15:22:18.858Z,1.98
2019-04-22T15:23:24.652Z,2.45
2019-04-22T15:24:29.536Z,2.12
2019-04-22T15:25:34.877Z,2.27
2019-04-22T15:26:40.134Z,2.50
2019-04-22T15:27:45.795Z,2.22
2019-04-22T15:28:51.399Z,1.80
2019-04-22T15:29:57.000Z,2.50
2019-04-22T15:31:01.588Z,2.40
2019-04-22T15:32:07.383Z,2.58
2019-04-22T15:33:11.908Z,2.10
2019-04-22T15:34:16.345Z,2.10
2019-04-22T15:35:20.624Z,2.22
2019-04-22T15:36:26.134Z,2.55
2019-04-22T15:37:31.138Z,2.45
2019-04-22T15:38:36.496Z,2.15
2019-04-22T15:39:41.533Z,2.30
2019-04-22T15:40:46.940Z,2.37
2019-04-22T15:42:01.510Z,2.00
2019-04-22T15:42:59.064Z,2.35
2019-04-22T15:44:03.735Z,2.20
2019-04-22T15:45:09.038Z,2.30
2019-04-22T15:46:14.230Z,2.20
2019-04-22T15:47:18.919Z,2.25
2019-04-22T15:48:24.954Z,2.20
2019-04-22T15:49:29.741Z,2.47
2019-04-22T15:50:35.065Z,2.80
2019-04-22T15:51:40.783Z,2.40
2019-04-22T15:52:50.018Z,2.67
2019-04-22T15:53:51.924Z,2.70
2019-04-22T15:54:56.445Z,2.98
2019-04-22T15:56:00.861Z,3.33
2019-04-22T15:57:06.578Z,2.80
2019-04-22T15:58:11.977Z,2.47
2019-04-22T15:59:43.445Z,2.30
2019-04-22T16:00:36.786Z,2.75
2019-04-22T16:01:35.168Z,2.83
2019-04-22T16:02:35.050Z,2.55
2019-04-22T16:03:40.655Z,2.35
2019-04-22T16:04:46.354Z,2.33
2019-04-22T16:05:52.224Z,2.90
2019-04-22T16:06:57.039Z,2.58
2019-04-22T16:08:03.245Z,2.30
2019-04-22T16:09:11.059Z,2.40
2019-04-22T16:10:15.845Z,2.72
2019-04-22T16:11:20.267Z,2.35
2019-04-22T16:12:30.934Z,2.33
2019-04-22T16:13:34.010Z,2.60
2019-04-22T16:14:42.010Z,2.42
2019-04-22T16:15:42.817Z,2.95
2019-04-22T16:16:48.379Z,2.70
2019-04-22T16:17:53.147Z,2.65
2019-04-22T16:18:58.522Z,2.95
2019-04-22T16:20:03.657Z,2.72
2019-04-22T16:21:09.062Z,2.42
2019-04-22T16:22:18.755Z,2.50